Time;durP1;ratioP1;P1;durP2;ratioP2;P2;SDS_P1;SDS_P2;PMS_P1;PMS_P2;Temp;Humidity;BMP_temperature;BMP_pressure;BME280_temperature;BME280_humidity;BME280_pressure;Samples;Min_cycle;Max_cycle;Signal;HPM_P1;HPM_P2
2024/02/08 00:00:36;;;;;;;19.70;10.23;;;8.60;99.20;;;;;;5081477;28;20021;-67
2024/02/08 00:03:07;;;;;;;17.95;9.82;;;8.60;99.00;;;;;;5081225;28;20020;-67
2024/02/08 00:05:33;;;;;;;19.27;10.20;;;8.70;99.10;;;;;;5081647;28;20043;-67
2024/02/08 00:07:58;;;;;;;20.80;10.43;;;8.80;98.50;;;;;;5081260;28;20344;-66
2024/02/08 00:10:24;;;;;;;21.23;10.60;;;8.90;98.50;;;;;;5084173;28;20220;-66
2024/02/08 00:12:50;;;;;;;18.50;10.57;;;9.00;98.40;;;;;;5101624;28;20036;-66
2024/02/08 00:15:16;;;;;;;22.95;10.88;;;9.40;98.20;;;;;;5101669;28;20304;-67
2024/02/08 00:17:41;;;;;;;18.85;11.10;;;8.80;88.30;;;;;;5101409;28;20334;-66
2024/02/08 00:20:07;;;;;;;17.27;10.13;;;8.70;98.50;;;;;;5101576;28;20036;-66
2024/02/08 00:22:33;;;;;;;19.10;11.75;;;8.50;98.10;;;;;;5101539;28;20227;-66
2024/02/08 00:25:00;;;;;;;21.02;11.43;;;8.80;98.10;;;;;;5082034;28;20028;-66
2024/02/08 00:27:26;;;;;;;22.20;11.20;;;8.80;98.00;;;;;;5073644;28;20036;-66
2024/02/08 00:29:51;;;;;;;20.50;12.77;;;8.60;97.90;;;;;;5101388;28;20016;-66
2024/02/08 00:32:19;;;;;;;21.50;11.73;;;8.80;98.00;;;;;;5100816;28;20263;-66
2024/02/08 00:34:46;;;;;;;19.23;10.82;;;8.80;97.90;;;;;;5101900;28;20040;-66
2024/02/08 00:37:11;;;;;;;16.15;9.82;;;8.90;97.90;;;;;;5101215;28;20236;-66
2024/02/08 00:39:42;;;;;;;21.15;10.93;;;8.80;97.90;;;;;;5101467;28;20050;-66
2024/02/08 00:42:11;;;;;;;18.08;9.88;;;8.80;97.90;;;;;;5101423;28;20020;-66
2024/02/08 00:44:42;;;;;;;18.23;8.80;;;8.80;88.20;;;;;;5099980;28;20024;-66
2024/02/08 00:47:11;;;;;;;19.45;11.65;;;8.70;97.90;;;;;;5101058;28;20024;-66
2024/02/08 00:49:40;;;;;;;19.67;11.23;;;8.70;88.40;;;;;;5104657;28;20020;-65
2024/02/08 00:52:07;;;;;;;19.52;10.23;;;8.50;98.50;;;;;;5105130;28;20040;-65
2024/02/08 00:54:35;;;;;;;17.52;10.73;;;8.60;98.60;;;;;;5095298;28;20012;-66
2024/02/08 00:57:07;;;;;;;19.50;10.82;;;8.40;98.70;;;;;;5105053;28;20032;-67
2024/02/08 00:59:37;;;;;;;18.83;10.98;;;8.50;99.00;;;;;;5105108;28;20080;-68
2024/02/08 01:02:06;;;;;;;24.48;10.95;;;8.30;99.50;;;;;;5104783;28;20087;-68
2024/02/08 01:04:34;;;;;;;;;;;8.20;90.50;;;;;;5105445;28;20012;-66
2024/02/08 01:07:01;;;;;;;18.65;11.02;;;8.20;91.10;;;;;;5104902;28;19900;-67
2024/02/08 01:09:26;;;;;;;20.65;10.95;;;8.20;99.90;;;;;;5104578;28;20046;-67
2024/02/08 01:11:52;;;;;;;18.67;10.43;;;8.10;99.90;;;;;;5094624;28;20031;-67
2024/02/08 01:14:24;;;;;;;19.30;10.73;;;8.00;99.90;;;;;;5104736;28;20138;-66
2024/02/08 01:16:50;;;;;;;19.13;10.73;;;7.80;99.90;;;;;;5104614;28;20028;-67
2024/02/08 01:19:22;;;;;;;16.77;9.68;;;8.10;99.90;;;;;;5104372;28;20401;-67
2024/02/08 01:21:57;;;;;;;18.33;10.50;;;8.00;99.90;;;;;;5104298;28;20036;-67
2024/02/08 01:24:23;;;;;;;18.77;11.40;;;8.20;99.90;;;;;;5104442;28;20024;-67
2024/02/08 01:26:50;;;;;;;20.90;10.18;;;8.00;99.90;;;;;;5104362;28;20312;-67
2024/02/08 01:29:17;;;;;;;18.25;9.57;;;8.10;99.90;;;;;;5094622;28;20038;-67
2024/02/08 01:31:43;;;;;;;18.10;9.18;;;8.30;99.90;;;;;;5104395;28;20076;-67
2024/02/08 01:34:09;;;;;;;18.98;10.15;;;8.00;99.90;;;;;;5102958;28;20150;-68
2024/02/08 01:36:36;;;;;;;18.60;9.98;;;8.20;99.90;;;;;;5104227;28;20024;-68
2024/02/08 01:39:06;;;;;;;20.25;10.05;;;8.40;99.90;;;;;;5104329;28;20026;-68
2024/02/08 01:41:34;;;;;;;19.40;10.32;;;8.30;99.90;;;;;;5104040;28;20077;-68
2024/02/08 01:44:07;;;;;;;20.58;11.57;;;8.20;99.90;;;;;;5104008;28;20016;-67
2024/02/08 01:46:39;;;;;;;19.48;10.38;;;8.10;99.90;;;;;;5103896;28;20031;-67
2024/02/08 01:49:07;;;;;;;22.92;10.05;;;8.30;99.90;;;;;;5103843;28;20213;-67
2024/02/08 01:51:34;;;;;;;21.10;11.05;;;7.90;99.90;;;;;;5103951;28;20031;-67
2024/02/08 01:54:01;;;;;;;19.73;11.38;;;8.00;99.90;;;;;;5103661;28;20012;-67
2024/02/08 01:56:29;;;;;;;17.30;10.68;;;8.00;99.90;;;;;;5103776;28;20051;-67
2024/02/08 01:58:58;;;;;;;20.23;11.60;;;8.00;99.90;;;;;;5097529;28;20081;-67
2024/02/08 02:01:25;;;;;;;20.75;10.98;;;8.10;99.90;;;;;;5099874;28;20016;-67
2024/02/08 02:03:51;;;;;;;19.15;11.35;;;8.00;99.90;;;;;;5103653;28;20216;-66
2024/02/08 02:06:17;;;;;;;20.05;10.30;;;8.20;99.90;;;;;;5103749;28;20095;-67
2024/02/08 02:08:53;;;;;;;21.15;9.98;;;8.00;99.90;;;;;;5103544;28;20201;-66
2024/02/08 02:11:31;;;;;;;16.08;9.13;;;8.10;99.90;;;;;;5102331;28;20028;-65
2024/02/08 02:13:58;;;;;;;19.98;8.65;;;8.20;99.90;;;;;;5103393;28;20061;-65
2024/02/08 02:16:24;;;;;;;18.38;9.60;;;8.10;99.90;;;;;;5103316;28;20383;-65
2024/02/08 02:18:52;;;;;;;18.33;9.10;;;8.10;99.90;;;;;;5093808;28;20024;-65
2024/02/08 02:21:20;;;;;;;18.00;10.13;;;8.10;99.90;;;;;;5102210;28;20034;-67
2024/02/08 02:23:45;;;;;;;18.13;9.65;;;8.10;99.90;;;;;;5103439;28;20027;-65
2024/02/08 02:26:12;;;;;;;17.02;8.55;;;8.10;99.90;;;;;;5103184;28;20016;-66
2024/02/08 02:28:40;;;;;;;17.75;8.18;;;8.20;99.90;;;;;;5103370;28;20035;-66
2024/02/08 02:31:06;;;;;;;17.05;8.02;;;8.10;92.90;;;;;;5101771;28;20311;-66
2024/02/08 02:33:36;;;;;;;16.08;8.63;;;8.30;99.90;;;;;;5102958;28;20247;-66
2024/02/08 02:36:03;;;;;;;13.05;8.68;;;8.10;99.90;;;;;;5093335;28;20020;-66
2024/02/08 02:38:29;;;;;;;20.83;9.48;;;8.10;99.90;;;;;;5102891;28;20028;-66
2024/02/08 02:40:54;;;;;;;16.40;8.88;;;8.20;99.90;;;;;;5102842;28;20189;-67
2024/02/08 02:43:26;;;;;;;21.20;9.38;;;8.00;99.90;;;;;;5101693;28;20027;-67
2024/02/08 02:45:55;;;;;;;21.23;10.40;;;8.30;99.90;;;;;;5101876;28;20020;-67
2024/02/08 02:48:21;;;;;;;;;;;8.10;92.90;;;;;;5103590;28;20020;-67
2024/02/08 02:50:51;;;;;;;18.13;10.23;;;8.20;99.90;;;;;;5102901;28;19904;-69
2024/02/08 02:53:17;;;;;;;20.40;10.00;;;8.00;99.90;;;;;;5102630;28;20036;-69
2024/02/08 02:55:43;;;;;;;16.40;10.13;;;8.10;99.90;;;;;;5102747;28;20023;-68
2024/02/08 02:58:09;;;;;;;18.33;9.88;;;;;;;;;;5102448;28;20323;-68
2024/02/08 03:00:34;;;;;;;16.95;9.90;;;7.90;99.90;;;;;;5102608;28;20035;-67
2024/02/08 03:03:07;;;;;;;18.33;10.40;;;8.00;99.90;;;;;;5102695;28;20024;-67
2024/02/08 03:05:37;;;;;;;19.60;10.00;;;8.00;99.90;;;;;;5102727;28;20042;-67
2024/02/08 03:08:05;;;;;;;18.40;9.90;;;8.00;99.90;;;;;;5102413;28;20028;-67
2024/02/08 03:10:32;;;;;;;17.05;9.90;;;7.90;99.90;;;;;;5102355;28;20079;-67
2024/02/08 03:12:58;;;;;;;18.70;10.23;;;7.80;99.90;;;;;;5102122;28;20073;-67
2024/02/08 03:15:24;;;;;;;15.93;9.35;;;8.00;99.90;;;;;;5102440;28;20247;-67
2024/02/08 03:17:50;;;;;;;16.73;9.40;;;8.00;99.90;;;;;;5102208;28;20024;-67
2024/02/08 03:20:29;;;;;;;15.68;9.00;;;8.00;99.90;;;;;;5102405;28;20028;-67
2024/02/08 03:22:56;;;;;;;14.90;9.30;;;7.90;99.90;;;;;;5102277;28;20316;-67
2024/02/08 03:25:22;;;;;;;20.35;8.68;;;8.00;99.90;;;;;;5102173;28;20042;-67
2024/02/08 03:27:51;;;;;;;21.95;9.40;;;8.10;99.90;;;;;;5098169;28;20024;-67
2024/02/08 03:30:30;;;;;;;15.10;8.68;;;7.90;99.90;;;;;;5097253;28;20203;-67
2024/02/08 03:33:02;;;;;;;15.35;8.93;;;8.00;99.90;;;;;;5100798;28;20101;-67
2024/02/08 03:35:28;;;;;;;17.30;8.32;;;8.00;95.50;;;;;;5102002;28;20016;-67
2024/02/08 03:37:54;;;;;;;14.52;8.50;;;8.00;99.90;;;;;;5101970;28;20204;-67
2024/02/08 03:40:21;;;;;;;17.10;8.70;;;7.90;99.90;;;;;;5102412;28;20227;-67
2024/02/08 03:42:50;;;;;;;16.15;9.02;;;8.00;99.90;;;;;;5101739;28;20316;-67
2024/02/08 03:45:23;;;;;;;16.42;8.93;;;8.10;95.50;;;;;;5101973;28;20060;-67
2024/02/08 03:47:52;;;;;;;16.25;9.18;;;8.20;99.90;;;;;;5101943;28;20027;-67
2024/02/08 03:50:24;;;;;;;14.07;8.88;;;8.30;99.90;;;;;;5101917;28;20019;-68
2024/02/08 03:52:50;;;;;;;20.73;8.88;;;8.20;99.90;;;;;;5101600;28;20043;-67
2024/02/08 03:55:17;;;;;;;16.48;8.52;;;8.20;99.90;;;;;;5101673;28;20087;-67
2024/02/08 03:57:48;;;;;;;16.50;8.65;;;8.20;99.90;;;;;;5101767;28;20062;-67
2024/02/08 04:00:22;;;;;;;12.88;8.27;;;8.00;99.90;;;;;;5092299;28;20274;-67
2024/02/08 04:02:48;;;;;;;14.20;7.80;;;8.20;99.90;;;;;;5101789;28;20031;-67
2024/02/08 04:05:26;;;;;;;17.40;9.30;;;8.10;99.90;;;;;;5100495;28;20017;-67
2024/02/08 04:08:02;;;;;;;17.83;9.02;;;8.20;99.90;;;;;;5101473;28;20313;-67
2024/02/08 04:54:03;;;;;;;17.88;10.50;;;7.90;99.90;;;;;;5106533;28;20026;-66
2024/02/08 04:56:29;;;;;;;18.10;9.50;;;7.80;99.90;;;;;;5106398;28;20035;-67
2024/02/08 04:58:55;;;;;;;16.55;8.32;;;7.60;99.90;;;;;;5107155;28;20020;-68
2024/02/08 05:01:26;;;;;;;16.95;9.52;;;7.90;99.90;;;;;;5106788;28;20389;-68
2024/02/08 05:03:52;;;;;;;20.10;9.13;;;7.70;99.90;;;;;;5106381;28;20031;-67
2024/02/08 05:06:21;;;;;;;16.58;9.68;;;7.80;99.90;;;;;;5106170;28;20027;-67
2024/02/08 05:08:57;;;;;;;19.17;10.30;;;7.70;99.90;;;;;;5106522;28;20418;-70
2024/02/08 05:11:23;;;;;;;21.95;10.32;;;7.70;97.20;;;;;;5106469;28;20024;-69
2024/02/08 05:13:52;;;;;;;22.38;10.75;;;7.70;97.30;;;;;;5106785;28;20016;-68
2024/02/08 05:16:18;;;;;;;17.20;10.32;;;7.70;99.90;;;;;;5106492;28;20024;-68
2024/02/08 05:18:45;;;;;;;21.02;10.55;;;7.70;97.30;;;;;;5106574;28;20047;-68
2024/02/08 05:21:17;;;;;;;18.40;10.25;;;7.70;97.60;;;;;;5106111;28;20083;-68
2024/02/08 05:23:44;;;;;;;19.92;11.02;;;8.00;99.90;;;;;;5106883;28;20026;-69
2024/02/08 05:26:21;;;;;;;19.52;9.57;;;7.70;99.90;;;;;;5104426;28;20016;-66
2024/02/08 05:28:48;;;;;;;15.48;9.35;;;7.60;99.90;;;;;;5104223;28;20091;-66
2024/02/08 05:31:17;;;;;;;20.33;10.95;;;7.70;99.90;;;;;;5104296;28;20032;-66
2024/02/08 05:33:43;;;;;;;18.83;10.63;;;8.00;99.90;;;;;;5103766;28;20067;-67
2024/02/08 05:36:12;;;;;;;16.50;10.02;;;7.70;99.90;;;;;;5104059;28;20061;-68
2024/02/08 05:38:42;;;;;;;22.08;9.93;;;7.60;99.90;;;;;;5104059;28;20334;-67
2024/02/08 05:41:08;;;;;;;;;;;7.60;98.00;;;;;;5104459;28;20028;-67
2024/02/08 05:43:47;;;;;;;18.50;9.63;;;7.60;98.30;;;;;;5104108;28;20232;-67
2024/02/08 05:46:21;;;;;;;18.83;10.13;;;7.60;99.90;;;;;;5103799;28;20028;-66
2024/02/08 05:48:51;;;;;;;20.60;10.57;;;7.60;99.90;;;;;;5103552;28;20016;-67
2024/02/08 05:51:21;;;;;;;20.95;11.68;;;7.60;99.90;;;;;;5103232;28;20035;-65
2024/02/08 05:53:51;;;;;;;16.17;10.40;;;7.60;99.90;;;;;;5101828;28;20024;-65
2024/02/08 05:56:26;;;;;;;21.52;10.90;;;7.60;99.90;;;;;;5103228;28;20046;-64
2024/02/08 05:58:52;;;;;;;18.77;10.02;;;7.70;99.90;;;;;;5103769;28;20012;-65
2024/02/08 06:01:23;;;;;;;14.98;9.82;;;7.60;99.90;;;;;;5094728;28;20028;-65
2024/02/08 06:03:49;;;;;;;17.17;9.90;;;7.60;99.90;;;;;;5103658;28;20016;-66
2024/02/08 06:06:26;;;;;;;15.60;9.75;;;7.60;99.90;;;;;;5103674;28;20079;-66
2024/02/08 06:08:57;;;;;;;16.92;9.32;;;7.50;99.90;;;;;;5103884;28;20043;-65
2024/02/08 06:11:23;;;;;;;20.33;9.68;;;7.50;99.90;;;;;;5103759;28;20036;-65
2024/02/08 06:13:58;;;;;;;15.30;9.57;;;7.70;99.90;;;;;;5103702;28;20203;-64
2024/02/08 06:16:45;;;;;;;17.05;9.90;;;7.60;99.90;;;;;;5103636;28;20024;-65
2024/02/08 06:19:14;;;;;;;21.98;11.40;;;7.50;99.90;;;;;;5103585;28;20012;-65
2024/02/08 06:21:45;;;;;;;22.50;10.45;;;7.70;99.90;;;;;;5103528;28;20027;-65
2024/02/08 06:26:56;;;;;;;19.30;11.40;;;7.70;99.90;;;;;;5103630;28;20040;-64
2024/02/08 06:29:26;;;;;;;18.55;10.13;;;7.60;99.90;;;;;;5103323;28;20016;-65
2024/02/08 06:32:23;;;;;;;19.00;9.30;;;7.70;99.90;;;;;;5103535;28;20105;-65
2024/02/08 06:35:08;;;;;;;16.33;9.43;;;8.10;99.90;;;;;;5091334;28;20687;-66
2024/02/08 06:37:43;;;;;;;14.18;9.07;;;7.70;97.70;;;;;;5077383;28;20316;-64
2024/02/08 06:43:26;;;;;;;20.27;10.40;;;7.70;99.90;;;;;;5065597;28;20090;-67
2024/02/08 07:37:46;;;;;;;26.30;12.88;;;8.90;99.90;;;;;;5061720;28;20235;-65
2024/02/08 07:40:34;;;;;;;28.42;13.02;;;8.80;94.80;;;;;;5051653;28;20209;-65
2024/02/08 07:45:45;;;;;;;24.38;13.75;;;8.90;99.90;;;;;;5061736;28;20013;-65
2024/02/08 07:48:37;;;;;;;32.47;17.05;;;9.00;99.90;;;;;;5061397;28;20035;-66
2024/02/08 07:51:03;;;;;;;26.52;14.85;;;8.90;99.90;;;;;;5061387;28;20040;-65
2024/02/08 07:59:06;;;;;;;15.82;9.27;;;9.10;99.90;;;;;;5081518;28;20027;-65
2024/02/08 08:01:32;;;;;;;14.35;8.68;;;9.20;99.90;;;;;;5081544;28;20051;-65
2024/02/08 08:04:08;;;;;;;13.80;8.50;;;9.30;99.90;;;;;;5081335;28;20351;-65
2024/02/08 08:06:50;;;;;;;21.15;9.57;;;9.60;99.90;;;;;;5081474;28;20048;-65
2024/02/08 08:09:19;;;;;;;19.50;9.95;;;9.30;99.90;;;;;;5081307;28;20028;-64
2024/02/08 08:11:46;;;;;;;15.57;9.45;;;9.60;92.30;;;;;;5081333;28;20363;-65
2024/02/08 08:14:55;;;;;;;11.77;8.45;;;;;;;;;;5081484;28;20056;-65
2024/02/08 08:19:40;;;;;;;14.15;7.88;;;10.10;99.20;;;;;;5081591;28;20366;-65
2024/02/08 08:22:50;;;;;;;12.45;7.65;;;10.50;98.60;;;;;;5081210;28;20528;-65
2024/02/08 08:30:53;;;;;;;11.23;6.28;;;11.20;85.90;;;;;;5059123;28;20264;-65
2024/02/08 08:33:58;;;;;;;10.13;5.78;;;11.50;82.50;;;;;;5058840;28;20053;-65
2024/02/08 08:36:28;;;;;;;11.95;6.97;;;11.70;80.90;;;;;;5060212;28;20284;-65
2024/02/08 08:38:54;;;;;;;16.40;6.90;;;11.80;79.00;;;;;;5060991;28;20040;-65
2024/02/08 08:41:24;;;;;;;;;;;11.80;77.90;;;;;;5061573;28;20017;-65
2024/02/08 08:43:52;;;;;;;15.00;7.55;;;11.70;92.70;;;;;;5061236;28;19901;-65
2024/02/08 08:46:21;;;;;;;9.95;6.10;;;11.50;92.80;;;;;;5064808;28;20024;-65
2024/02/08 08:48:50;;;;;;;10.13;6.83;;;11.40;92.90;;;;;;5069611;28;20040;-65
2024/02/08 08:51:22;;;;;;;11.13;6.53;;;11.00;93.40;;;;;;5075392;28;20070;-65
2024/02/08 08:54:00;;;;;;;9.75;6.53;;;11.20;79.40;;;;;;5071896;28;20025;-65
2024/02/08 08:56:28;;;;;;;11.60;7.15;;;11.10;79.70;;;;;;5061057;28;20017;-65
2024/02/08 08:58:54;;;;;;;9.73;5.80;;;11.10;80.00;;;;;;5071697;28;20043;-66
2024/02/08 09:01:22;;;;;;;10.85;5.20;;;11.00;80.60;;;;;;5071628;28;20017;-65
2024/02/08 09:06:33;;;;;;;10.90;6.55;;;11.30;81.40;;;;;;5072317;28;20118;-66
2024/02/08 09:09:27;;;;;;;11.02;6.72;;;11.60;80.70;;;;;;5063807;28;20037;-67
2024/02/08 09:11:44;;;;;;;9.85;6.43;;;12.10;92.80;;;;;;5064240;28;20047;-67
2024/02/08 09:14:10;;;;;;;12.85;7.30;;;11.90;92.40;;;;;;5064647;28;20017;-66
2024/02/08 09:16:52;;;;;;;11.25;6.75;;;12.00;92.40;;;;;;5067738;28;20032;-66
2024/02/08 09:19:27;;;;;;;11.27;7.10;;;11.90;77.40;;;;;;5083984;28;20118;-65
2024/02/08 09:21:59;;;;;;;15.80;8.63;;;12.00;76.40;;;;;;5084072;28;20036;-66
2024/02/08 09:24:26;;;;;;;17.70;10.57;;;12.20;92.00;;;;;;5084028;28;20021;-66
2024/02/08 09:27:15;;;;;;;13.43;8.98;;;12.10;76.40;;;;;;5083972;28;20032;-66
2024/02/08 09:29:50;;;;;;;10.27;5.50;;;12.30;91.10;;;;;;5083658;28;20024;-66
2024/02/08 09:32:43;;;;;;;9.90;5.90;;;12.20;75.10;;;;;;5083579;28;20044;-65
2024/02/08 09:35:16;;;;;;;8.05;5.88;;;12.30;74.30;;;;;;5083572;28;20029;-65
2024/02/08 09:37:46;;;;;;;10.15;5.55;;;12.40;73.30;;;;;;5083526;28;20031;-65
2024/02/08 09:43:11;;;;;;;10.05;5.97;;;12.50;72.10;;;;;;5083646;28;20049;-65
2024/02/08 09:48:11;;;;;;;9.48;6.10;;;12.80;71.30;;;;;;5083656;28;20016;-66
2024/02/08 09:50:43;;;;;;;7.80;5.60;;;12.90;87.30;;;;;;5083429;28;20019;-66
2024/02/08 09:53:18;;;;;;;8.95;5.82;;;13.00;69.60;;;;;;5083279;28;20040;-66
2024/02/08 09:55:57;;;;;;;7.82;5.03;;;13.10;68.70;;;;;;5083567;28;20031;-65
2024/02/08 09:58:39;;;;;;;10.23;6.07;;;13.20;69.40;;;;;;5083402;28;20065;-65
2024/02/08 10:01:30;;;;;;;8.35;6.35;;;13.60;85.50;;;;;;5083328;28;20016;-66
2024/02/08 10:04:05;;;;;;;8.75;5.72;;;13.50;68.20;;;;;;5083429;28;20043;-66
2024/02/08 10:06:39;;;;;;;13.43;6.80;;;13.70;67.90;;;;;;5082888;28;20020;-66
2024/02/08 10:12:06;;;;;;;9.30;5.47;;;14.10;66.50;;;;;;5082756;28;20034;-66
2024/02/08 10:14:36;;;;;;;10.85;5.28;;;14.20;65.70;;;;;;5082845;28;20025;-66
2024/02/08 10:17:17;;;;;;;9.35;5.78;;;14.20;65.70;;;;;;5082554;28;20051;-65
2024/02/08 10:22:56;;;;;;;7.53;5.78;;;14.10;65.00;;;;;;5082288;28;20397;-66
2024/02/08 10:28:21;;;;;;;9.05;5.30;;;14.10;65.60;;;;;;5081856;28;20019;-65
2024/02/08 10:31:07;;;;;;;9.55;5.30;;;13.90;65.60;;;;;;5082750;28;20047;-66
2024/02/08 10:33:38;;;;;;;10.80;5.15;;;13.90;65.70;;;;;;5082058;28;20354;-65
2024/02/08 10:36:10;;;;;;;18.02;8.32;;;13.70;83.40;;;;;;5082608;28;20020;-65
2024/02/08 10:44:19;;;;;;;8.40;5.07;;;13.40;83.90;;;;;;5063304;28;20057;-66
2024/02/08 10:46:48;;;;;;;9.32;4.70;;;13.40;84.70;;;;;;5062232;28;20025;-66
2024/02/08 10:49:14;;;;;;;7.00;4.25;;;13.20;66.80;;;;;;5062456;28;20017;-67
2024/02/08 10:51:43;;;;;;;7.57;4.20;;;13.20;67.20;;;;;;5076834;28;20244;-66
2024/02/08 10:54:15;;;;;;;;;;;13.20;67.30;;;;;;5082624;28;20044;-65
2024/02/08 10:57:06;;;;;;;7.15;4.07;;;13.10;67.70;;;;;;5082166;28;19979;-66
2024/02/08 10:59:48;;;;;;;6.22;4.18;;;13.30;85.40;;;;;;5082097;28;20032;-65
2024/02/08 11:02:35;;;;;;;6.50;4.43;;;13.10;67.80;;;;;;5089985;28;20020;-66
2024/02/08 11:08:13;;;;;;;8.38;5.35;;;13.20;67.70;;;;;;5090011;28;20240;-65
2024/02/08 11:10:42;;;;;;;11.90;4.77;;;13.20;67.80;;;;;;5102096;28;20020;-66
2024/02/08 11:13:11;;;;;;;;;;;13.20;67.70;;;;;;5102527;28;20046;-65
2024/02/08 11:15:42;;;;;;;8.50;4.75;;;13.20;67.70;;;;;;5101932;28;19931;-65
2024/02/08 11:18:33;;;;;;;6.30;3.95;;;13.10;85.90;;;;;;5095300;28;20042;-65
2024/02/08 11:21:03;;;;;;;11.68;4.25;;;13.10;85.80;;;;;;5101525;28;20051;-64
2024/02/08 11:23:31;;;;;;;7.05;3.70;;;13.10;67.80;;;;;;5092240;28;20013;-63
2024/02/08 11:26:07;;;;;;;7.32;3.40;;;13.20;85.50;;;;;;5080677;28;20016;-63
2024/02/08 11:28:44;;;;;;;6.03;4.03;;;13.20;84.80;;;;;;5079451;28;20047;-63
2024/02/08 11:31:17;;;;;;;5.60;3.28;;;13.30;85.00;;;;;;5079563;28;20024;-63
2024/02/08 11:33:43;;;;;;;9.18;3.33;;;13.40;66.80;;;;;;5079495;28;20067;-63
2024/02/08 11:36:16;;;;;;;4.93;2.80;;;13.50;66.50;;;;;;5080349;28;20023;-64
2024/02/08 11:38:57;;;;;;;10.45;3.92;;;13.60;65.90;;;;;;5080534;28;20030;-63
2024/02/08 11:41:25;;;;;;;7.20;2.90;;;13.60;65.60;;;;;;5080760;28;20209;-63
2024/02/08 11:44:11;;;;;;;9.82;2.58;;;13.60;65.60;;;;;;5081965;28;20065;-63
2024/02/08 11:46:37;;;;;;;1.83;1.25;;;13.60;65.10;;;;;;5080425;28;20055;-64
2024/02/08 11:49:14;;;;;;;5.57;1.23;;;13.60;64.50;;;;;;5081491;28;20093;-64
2024/02/08 11:51:45;;;;;;;3.58;1.20;;;13.60;64.00;;;;;;5081556;28;20078;-63
2024/02/08 11:54:28;;;;;;;3.35;1.02;;;13.60;63.50;;;;;;5081444;28;20170;-64
2024/02/08 11:56:57;;;;;;;3.35;1.50;;;13.60;63.00;;;;;;5081363;28;20126;-64
2024/02/08 11:59:24;;;;;;;4.70;1.73;;;13.60;63.00;;;;;;5081459;28;20039;-63
2024/02/08 12:01:54;;;;;;;1.60;1.05;;;13.60;63.00;;;;;;5081608;28;20024;-64
2024/02/08 12:04:22;;;;;;;3.22;1.30;;;13.70;62.80;;;;;;5081293;28;20327;-64
2024/02/08 12:06:49;;;;;;;1.85;1.13;;;13.80;62.40;;;;;;5081377;28;20050;-63
2024/02/08 12:09:22;;;;;;;2.92;1.13;;;13.90;62.10;;;;;;5081575;28;20016;-63
2024/02/08 12:11:51;;;;;;;3.38;1.27;;;14.10;61.70;;;;;;5081109;28;20056;-64
2024/02/08 12:14:17;;;;;;;;;;;14.20;60.90;;;;;;5082010;28;20031;-63
2024/02/08 12:16:46;;;;;;;23.75;4.50;;;14.30;59.90;;;;;;5081444;28;20186;-63
2024/02/08 12:19:19;;;;;;;41.40;6.22;;;14.30;60.40;;;;;;5080201;28;20020;-63
2024/02/08 12:22:04;;;;;;;25.08;3.00;;;14.30;59.00;;;;;;5081064;28;20028;-63
2024/02/08 12:24:34;;;;;;;3.45;1.30;;;14.40;59.10;;;;;;5081387;28;20021;-64
2024/02/08 12:27:07;;;;;;;3.92;2.20;;;14.30;59.50;;;;;;5081236;28;20047;-63
2024/02/08 12:29:39;;;;;;;5.22;2.85;;;14.40;59.90;;;;;;5080992;28;20224;-64
2024/02/08 12:32:16;;;;;;;7.72;3.67;;;14.40;60.30;;;;;;5080811;28;20052;-64
2024/02/08 12:34:42;;;;;;;4.18;3.15;;;14.40;60.50;;;;;;5081331;28;20016;-64
2024/02/08 12:37:09;;;;;;;6.07;3.53;;;14.40;60.70;;;;;;5081190;28;20024;-63
2024/02/08 12:39:40;;;;;;;6.13;3.65;;;14.30;60.80;;;;;;5081254;28;20052;-64
2024/02/08 12:42:06;;;;;;;7.93;3.03;;;14.20;61.20;;;;;;5081309;28;20062;-63
2024/02/08 12:44:36;;;;;;;6.78;3.33;;;14.10;61.00;;;;;;5082365;28;20020;-64
2024/02/08 12:47:06;;;;;;;4.45;3.45;;;14.10;60.90;;;;;;5084914;28;20023;-63
2024/02/08 12:49:33;;;;;;;7.28;3.58;;;14.10;60.70;;;;;;5084886;28;20060;-63
2024/02/08 12:52:09;;;;;;;9.25;4.10;;;14.10;60.00;;;;;;5084659;28;20103;-63
2024/02/08 12:54:37;;;;;;;8.05;4.57;;;14.10;59.80;;;;;;5085183;28;20047;-63
2024/02/08 12:57:08;;;;;;;7.75;4.60;;;14.20;59.60;;;;;;5085200;28;20228;-63
2024/02/08 12:59:38;;;;;;;8.98;5.15;;;14.40;76.70;;;;;;5084701;28;20363;-63
2024/02/08 13:02:10;;;;;;;8.82;5.10;;;14.40;59.40;;;;;;5084582;28;20040;-63
2024/02/08 13:04:43;;;;;;;8.88;4.40;;;14.60;59.00;;;;;;5084694;28;20017;-63
2024/02/08 13:07:18;;;;;;;6.28;4.20;;;14.60;58.90;;;;;;5084490;28;20031;-63
2024/02/08 13:09:45;;;;;;;6.47;4.45;;;14.60;58.70;;;;;;5084674;28;20039;-63
2024/02/08 13:12:17;;;;;;;11.52;6.78;;;14.70;59.30;;;;;;5084257;28;20032;-64
2024/02/08 13:14:56;;;;;;;10.05;5.50;;;14.80;58.60;;;;;;5084362;28;20055;-63
2024/02/08 13:17:26;;;;;;;11.15;5.43;;;14.80;58.60;;;;;;5084528;28;20079;-63
2024/02/08 13:19:55;;;;;;;12.60;6.43;;;14.70;59.10;;;;;;5100664;28;20073;-64
2024/02/08 13:22:30;;;;;;;9.38;5.57;;;14.80;75.80;;;;;;5103160;28;20066;-63
2024/02/08 13:24:57;;;;;;;12.85;5.85;;;14.70;59.00;;;;;;5104455;28;20476;-63
2024/02/08 13:27:29;;;;;;;10.20;5.90;;;14.90;76.00;;;;;;5103321;28;20023;-64
2024/02/08 13:29:59;;;;;;;10.70;6.30;;;15.00;59.00;;;;;;5104451;28;20320;-64
2024/02/08 13:32:29;;;;;;;9.52;6.25;;;15.20;58.50;;;;;;5104146;28;20058;-64
2024/02/08 13:34:57;;;;;;;8.68;5.60;;;15.30;58.10;;;;;;5104552;28;20043;-63
2024/02/08 13:37:23;;;;;;;11.15;5.78;;;15.50;57.30;;;;;;5092893;28;20040;-63
2024/02/08 13:40:03;;;;;;;9.73;5.63;;;16.10;56.30;;;;;;5072842;28;20013;-63
2024/02/08 13:42:32;;;;;;;10.68;6.88;;;16.30;55.10;;;;;;5063864;28;20016;-64
2024/02/08 13:44:58;;;;;;;;;;;16.20;54.80;;;;;;5064453;28;20063;-64
2024/02/08 13:47:30;;;;;;;12.73;6.47;;;16.10;54.50;;;;;;5063689;28;20211;-64
2024/02/08 13:49:57;;;;;;;14.27;7.00;;;16.00;54.80;;;;;;5063706;28;20313;-64
2024/02/08 13:52:26;;;;;;;13.30;6.40;;;15.90;55.00;;;;;;5063388;28;20317;-64
2024/02/08 13:54:55;;;;;;;12.20;7.20;;;15.90;55.00;;;;;;5063578;28;20232;-64
2024/02/08 13:57:21;;;;;;;10.25;6.28;;;16.10;54.90;;;;;;5063476;28;20025;-65
2024/02/08 13:59:51;;;;;;;10.55;5.53;;;16.70;53.90;;;;;;5063681;28;20021;-65
2024/02/08 14:02:18;;;;;;;8.05;5.50;;;17.60;51.90;;;;;;5063607;28;20028;-64
2024/02/08 14:04:50;;;;;;;11.27;5.93;;;17.70;50.90;;;;;;5067547;28;20092;-65
2024/02/08 14:07:25;;;;;;;9.50;5.72;;;20.70;48.00;;;;;;5069109;28;20025;-66
2024/02/08 14:09:58;;;;;;;10.52;5.78;;;23.20;42.60;;;;;;5065465;28;20100;-65
2024/02/08 14:12:27;;;;;;;9.23;5.60;;;24.70;40.90;;;;;;5083285;28;20186;-66
2024/02/08 14:14:57;;;;;;;7.72;4.97;;;26.30;39.00;;;;;;5082570;28;20362;-66
2024/02/08 14:17:34;;;;;;;7.55;5.32;;;25.40;37.70;;;;;;5082923;28;20047;-65
2024/02/08 14:20:01;;;;;;;12.68;6.13;;;23.30;39.90;;;;;;5083194;28;20300;-65
2024/02/08 14:22:29;;;;;;;8.35;5.45;;;21.00;42.10;;;;;;5082875;28;20039;-65
2024/02/08 14:24:58;;;;;;;9.88;5.95;;;21.30;43.80;;;;;;5077894;28;20012;-65
2024/02/08 14:27:24;;;;;;;11.07;7.20;;;24.40;39.90;;;;;;5072013;28;20025;-65
2024/02/08 14:29:50;;;;;;;8.82;6.43;;;27.10;36.40;;;;;;5072132;28;20028;-66
2024/02/08 14:32:17;;;;;;;10.93;6.25;;;28.30;34.70;;;;;;5078900;28;20062;-66
2024/02/08 14:34:43;;;;;;;9.82;6.28;;;28.40;33.60;;;;;;5082526;28;20017;-66
2024/02/08 14:37:10;;;;;;;9.40;5.85;;;29.00;32.90;;;;;;5082520;28;20021;-65
2024/02/08 14:39:37;;;;;;;6.97;6.07;;;29.30;32.20;;;;;;5082537;28;20028;-65
2024/02/08 14:42:17;;;;;;;9.60;6.97;;;27.60;32.80;;;;;;5081617;28;20020;-66
2024/02/08 14:44:44;;;;;;;10.77;7.20;;;27.50;33.10;;;;;;5081917;28;20189;-66
2024/02/08 14:47:25;;;;;;;11.23;6.45;;;27.00;33.20;;;;;;5081786;28;20091;-66
2024/02/08 14:49:54;;;;;;;12.52;7.10;;;25.20;34.60;;;;;;5080348;28;20317;-66
2024/02/08 14:52:34;;;;;;;11.38;8.00;;;22.70;37.70;;;;;;5081921;28;20073;-65
2024/02/08 14:55:20;;;;;;;13.70;7.97;;;20.80;40.30;;;;;;5080599;28;20017;-65
2024/02/08 14:57:46;;;;;;;14.30;8.93;;;19.10;42.90;;;;;;5076553;28;20032;-65
2024/02/08 15:03:07;;;;;;;15.93;9.27;;;17.00;46.80;;;;;;5082159;28;20033;-65
2024/02/08 15:05:59;;;;;;;16.33;9.93;;;17.70;61.10;;;;;;5080191;28;20239;-65
2024/02/08 15:11:03;;;;;;;;;;;18.20;45.30;;;;;;5078357;28;20019;-65
2024/02/08 15:13:49;;;;;;;14.90;9.43;;;18.30;44.90;;;;;;5081149;28;20192;-65
2024/02/08 15:16:21;;;;;;;17.63;9.30;;;17.40;61.40;;;;;;5081365;28;20204;-65
2024/02/08 15:18:48;;;;;;;17.50;9.32;;;17.00;46.00;;;;;;5081468;28;20040;-65
2024/02/08 15:21:34;;;;;;;16.73;9.05;;;15.80;47.50;;;;;;5081639;28;20051;-65
2024/02/08 15:26:44;;;;;;;20.08;10.05;;;14.90;67.30;;;;;;5078642;28;20226;-65
2024/02/08 15:29:30;;;;;;;19.20;9.63;;;14.80;50.10;;;;;;5081124;28;20066;-65
2024/02/08 15:31:57;;;;;;;16.77;9.88;;;14.50;50.80;;;;;;5078885;28;20268;-65
2024/02/08 15:40:09;;;;;;;20.58;10.40;;;13.70;71.20;;;;;;5081204;28;20019;-65
2024/02/08 15:42:48;;;;;;;18.65;10.55;;;13.50;72.30;;;;;;5079241;28;20101;-65